sensor_id;sensor_type;location;lat;lon;timestamp;temperature;humidity
70154;DHT22;57519;51.494;-2.626;2023-05-10T00:01:19;10.23;95.34
70154;DHT22;57519;51.494;-2.626;2023-05-10T00:03:47;10.21;95.32
70154;DHT22;57519;51.494;-2.626;2023-05-10T00:06:14;10.23;95.42
70154;DHT22;57519;51.494;-2.626;2023-05-10T00:08:40;10.29;95.46
70154;DHT22;57519;51.494;-2.626;2023-05-10T00:11:06;10.33;95.54
70154;DHT22;57519;51.494;-2.626;2023-05-10T00:13:31;10.36;95.64
70154;DHT22;57519;51.494;-2.626;2023-05-10T00:15:57;10.43;95.71
70154;DHT22;57519;51.494;-2.626;2023-05-10T00:18:22;10.48;95.71
70154;DHT22;57519;51.494;-2.626;2023-05-10T00:20:48;10.53;95.77
70154;DHT22;57519;51.494;-2.626;2023-05-10T00:41:22;10.71;95.91
70154;DHT22;57519;51.494;-2.626;2023-05-10T00:43:54;10.77;96.02
70154;DHT22;57519;51.494;-2.626;2023-05-10T00:46:20;10.81;95.99
70154;DHT22;57519;51.494;-2.626;2023-05-10T00:48:46;10.85;95.97
70154;DHT22;57519;51.494;-2.626;2023-05-10T00:51:13;10.94;96.00
70154;DHT22;57519;51.494;-2.626;2023-05-10T00:53:38;11.01;95.95
70154;DHT22;57519;51.494;-2.626;2023-05-10T00:56:04;11.03;95.97
70154;DHT22;57519;51.494;-2.626;2023-05-10T00:58:30;11.03;95.97
70154;DHT22;57519;51.494;-2.626;2023-05-10T01:00:56;11.03;95.65
70154;DHT22;57519;51.494;-2.626;2023-05-10T01:03:22;11.04;95.64
70154;DHT22;57519;51.494;-2.626;2023-05-10T01:05:48;11.03;95.41
70154;DHT22;57519;51.494;-2.626;2023-05-10T01:08:14;11.01;95.30
70154;DHT22;57519;51.494;-2.626;2023-05-10T01:10:39;11.03;95.27
70154;DHT22;57519;51.494;-2.626;2023-05-10T01:13:06;11.01;95.21
70154;DHT22;57519;51.494;-2.626;2023-05-10T01:15:31;11.01;95.14
70154;DHT22;57519;51.494;-2.626;2023-05-10T01:17:58;10.93;95.07
70154;DHT22;57519;51.494;-2.626;2023-05-10T01:20:24;10.87;95.14
70154;DHT22;57519;51.494;-2.626;2023-05-10T01:31:27;10.85;95.27
70154;DHT22;57519;51.494;-2.626;2023-05-10T01:36:38;10.89;95.28
70154;DHT22;57519;51.494;-2.626;2023-05-10T01:39:18;10.94;95.27
70154;DHT22;57519;51.494;-2.626;2023-05-10T01:41:54;10.94;95.17
70154;DHT22;57519;51.494;-2.626;2023-05-10T01:47:14;10.81;94.99
70154;DHT22;57519;51.494;-2.626;2023-05-10T01:49:47;10.80;94.99
70154;DHT22;57519;51.494;-2.626;2023-05-10T01:52:18;10.76;94.98
70154;DHT22;57519;51.494;-2.626;2023-05-10T02:23:29;10.89;94.86
70154;DHT22;57519;51.494;-2.626;2023-05-10T02:25:56;10.87;94.59
70154;DHT22;57519;51.494;-2.626;2023-05-10T02:28:23;10.83;94.64
70154;DHT22;57519;51.494;-2.626;2023-05-10T02:30:51;10.81;94.70
70154;DHT22;57519;51.494;-2.626;2023-05-10T02:33:17;10.83;94.74
70154;DHT22;57519;51.494;-2.626;2023-05-10T02:35:45;10.85;94.62
70154;DHT22;57519;51.494;-2.626;2023-05-10T02:38:13;10.87;94.66
70154;DHT22;57519;51.494;-2.626;2023-05-10T02:40:40;10.87;94.76
70154;DHT22;57519;51.494;-2.626;2023-05-10T02:43:09;10.90;94.74
70154;DHT22;57519;51.494;-2.626;2023-05-10T02:45:37;11.00;94.72
70154;DHT22;57519;51.494;-2.626;2023-05-10T02:48:04;10.98;94.61
70154;DHT22;57519;51.494;-2.626;2023-05-10T02:50:32;10.98;94.67
70154;DHT22;57519;51.494;-2.626;2023-05-10T02:53:18;10.94;94.67
70154;DHT22;57519;51.494;-2.626;2023-05-10T02:55:51;10.89;94.60
70154;DHT22;57519;51.494;-2.626;2023-05-10T02:58:17;10.87;94.67
70154;DHT22;57519;51.494;-2.626;2023-05-10T03:00:44;10.77;94.67
70154;DHT22;57519;51.494;-2.626;2023-05-10T03:03:10;10.74;94.70
70154;DHT22;57519;51.494;-2.626;2023-05-10T03:05:36;10.74;94.79
70154;DHT22;57519;51.494;-2.626;2023-05-10T03:08:02;10.74;94.92
70154;DHT22;57519;51.494;-2.626;2023-05-10T03:10:29;10.79;95.02
70154;DHT22;57519;51.494;-2.626;2023-05-10T03:18:22;10.85;94.96
70154;DHT22;57519;51.494;-2.626;2023-05-10T03:20:49;10.80;94.96
70154;DHT22;57519;51.494;-2.626;2023-05-10T03:23:40;10.73;95.07
70154;DHT22;57519;51.494;-2.626;2023-05-10T03:26:07;10.71;95.09
70154;DHT22;57519;51.494;-2.626;2023-05-10T03:28:34;10.69;95.11
70154;DHT22;57519;51.494;-2.626;2023-05-10T03:31:00;10.66;95.20
70154;DHT22;57519;51.494;-2.626;2023-05-10T03:33:25;10.69;95.25
70154;DHT22;57519;51.494;-2.626;2023-05-10T03:35:51;10.69;95.31
70154;DHT22;57519;51.494;-2.626;2023-05-10T03:38:16;10.66;95.29
70154;DHT22;57519;51.494;-2.626;2023-05-10T03:40:42;10.69;95.36
70154;DHT22;57519;51.494;-2.626;2023-05-10T03:43:07;10.66;95.38
70154;DHT22;57519;51.494;-2.626;2023-05-10T03:45:32;10.64;95.35
70154;DHT22;57519;51.494;-2.626;2023-05-10T03:47:58;10.70;95.32
70154;DHT22;57519;51.494;-2.626;2023-05-10T03:50:24;10.67;95.15
70154;DHT22;57519;51.494;-2.626;2023-05-10T03:52:49;10.67;95.02
70154;DHT22;57519;51.494;-2.626;2023-05-10T03:55:15;10.67;94.90
70154;DHT22;57519;51.494;-2.626;2023-05-10T03:57:41;10.73;94.81
70154;DHT22;57519;51.494;-2.626;2023-05-10T04:00:07;10.71;94.93
70154;DHT22;57519;51.494;-2.626;2023-05-10T04:02:33;10.70;94.80
70154;DHT22;57519;51.494;-2.626;2023-05-10T04:04:58;10.71;94.74
70154;DHT22;57519;51.494;-2.626;2023-05-10T04:07:24;10.69;94.69
70154;DHT22;57519;51.494;-2.626;2023-05-10T04:09:49;10.62;94.73
70154;DHT22;57519;51.494;-2.626;2023-05-10T04:12:15;10.53;94.81
70154;DHT22;57519;51.494;-2.626;2023-05-10T04:14:40;10.56;94.88
70154;DHT22;57519;51.494;-2.626;2023-05-10T04:17:06;10.53;94.94
70154;DHT22;57519;51.494;-2.626;2023-05-10T04:19:31;10.43;94.86
70154;DHT22;57519;51.494;-2.626;2023-05-10T04:21:57;10.31;94.81
70154;DHT22;57519;51.494;-2.626;2023-05-10T04:24:23;10.31;94.99
70154;DHT22;57519;51.494;-2.626;2023-05-10T04:26:48;10.31;95.05
70154;DHT22;57519;51.494;-2.626;2023-05-10T04:29:16;10.29;95.03
70154;DHT22;57519;51.494;-2.626;2023-05-10T04:31:42;10.31;95.03
70154;DHT22;57519;51.494;-2.626;2023-05-10T04:34:07;10.32;95.01
70154;DHT22;57519;51.494;-2.626;2023-05-10T04:36:32;10.41;95.12
70154;DHT22;57519;51.494;-2.626;2023-05-10T04:39:00;10.48;95.19
70154;DHT22;57519;51.494;-2.626;2023-05-10T04:41:26;10.56;94.96
70154;DHT22;57519;51.494;-2.626;2023-05-10T04:43:51;10.67;94.65
70154;DHT22;57519;51.494;-2.626;2023-05-10T04:46:16;10.77;94.23
70154;DHT22;57519;51.494;-2.626;2023-05-10T04:48:42;10.83;93.83
70154;DHT22;57519;51.494;-2.626;2023-05-10T04:51:07;10.94;93.54
70154;DHT22;57519;51.494;-2.626;2023-05-10T04:53:33;10.98;93.14
70154;DHT22;57519;51.494;-2.626;2023-05-10T04:55:58;11.00;93.07
70154;DHT22;57519;51.494;-2.626;2023-05-10T04:58:24;11.07;92.37
70154;DHT22;57519;51.494;-2.626;2023-05-10T05:00:50;11.11;92.52
70154;DHT22;57519;51.494;-2.626;2023-05-10T05:09:15;11.28;92.17
70154;DHT22;57519;51.494;-2.626;2023-05-10T05:11:41;11.32;91.87
70154;DHT22;57519;51.494;-2.626;2023-05-10T05:14:06;11.39;91.69
70154;DHT22;57519;51.494;-2.626;2023-05-10T05:16:32;11.36;91.52
70154;DHT22;57519;51.494;-2.626;2023-05-10T05:18:57;11.43;90.81
70154;DHT22;57519;51.494;-2.626;2023-05-10T05:21:23;11.39;91.05
70154;DHT22;57519;51.494;-2.626;2023-05-10T05:23:49;11.45;91.07
70154;DHT22;57519;51.494;-2.626;2023-05-10T05:26:14;11.43;90.75
70154;DHT22;57519;51.494;-2.626;2023-05-10T05:28:40;11.48;90.90
70154;DHT22;57519;51.494;-2.626;2023-05-10T05:31:06;11.46;90.93
70154;DHT22;57519;51.494;-2.626;2023-05-10T05:33:35;11.46;90.76
70154;DHT22;57519;51.494;-2.626;2023-05-10T05:36:04;11.48;90.75
70154;DHT22;57519;51.494;-2.626;2023-05-10T05:38:30;11.43;90.87
70154;DHT22;57519;51.494;-2.626;2023-05-10T05:40:56;11.46;91.06
70154;DHT22;57519;51.494;-2.626;2023-05-10T05:45:57;11.72;90.84
70154;DHT22;57519;51.494;-2.626;2023-05-10T05:48:23;11.73;90.65
70154;DHT22;57519;51.494;-2.626;2023-05-10T05:50:48;11.80;90.48
70154;DHT22;57519;51.494;-2.626;2023-05-10T05:53:17;11.86;90.35
70154;DHT22;57519;51.494;-2.626;2023-05-10T05:55:56;11.89;90.11
70154;DHT22;57519;51.494;-2.626;2023-05-10T06:00:58;12.03;89.84
70154;DHT22;57519;51.494;-2.626;2023-05-10T06:03:23;12.18;89.67
70154;DHT22;57519;51.494;-2.626;2023-05-10T06:12:33;12.73;87.97
70154;DHT22;57519;51.494;-2.626;2023-05-10T06:14:58;13.00;88.13
70154;DHT22;57519;51.494;-2.626;2023-05-10T06:17:24;13.23;87.75
70154;DHT22;57519;51.494;-2.626;2023-05-10T06:19:50;13.38;86.46
70154;DHT22;57519;51.494;-2.626;2023-05-10T06:22:15;13.53;85.40
70154;DHT22;57519;51.494;-2.626;2023-05-10T06:24:41;13.81;85.41
70154;DHT22;57519;51.494;-2.626;2023-05-10T06:27:06;13.68;85.17
70154;DHT22;57519;51.494;-2.626;2023-05-10T06:29:32;13.57;85.24
70154;DHT22;57519;51.494;-2.626;2023-05-10T06:31:57;13.36;86.07
70154;DHT22;57519;51.494;-2.626;2023-05-10T06:34:24;13.48;86.18
70154;DHT22;57519;51.494;-2.626;2023-05-10T06:36:49;13.41;85.46
70154;DHT22;57519;51.494;-2.626;2023-05-10T06:39:15;13.69;84.54
70154;DHT22;57519;51.494;-2.626;2023-05-10T06:41:41;13.83;84.34
70154;DHT22;57519;51.494;-2.626;2023-05-10T06:44:06;14.05;82.77
70154;DHT22;57519;51.494;-2.626;2023-05-10T06:46:32;14.08;82.94
70154;DHT22;57519;51.494;-2.626;2023-05-10T06:48:57;14.05;83.32
70154;DHT22;57519;51.494;-2.626;2023-05-10T06:51:22;13.64;83.20
70154;DHT22;57519;51.494;-2.626;2023-05-10T06:53:48;13.43;84.06
70154;DHT22;57519;51.494;-2.626;2023-05-10T06:56:13;13.18;84.19
70154;DHT22;57519;51.494;-2.626;2023-05-10T06:58:39;13.31;84.96
70154;DHT22;57519;51.494;-2.626;2023-05-10T07:01:05;13.28;85.24
70154;DHT22;57519;51.494;-2.626;2023-05-10T07:03:31;13.33;85.79
70154;DHT22;57519;51.494;-2.626;2023-05-10T07:06:03;13.26;85.97
70154;DHT22;57519;51.494;-2.626;2023-05-10T07:08:33;13.09;85.55
70154;DHT22;57519;51.494;-2.626;2023-05-10T07:11:05;13.13;86.01
70154;DHT22;57519;51.494;-2.626;2023-05-10T07:13:33;13.16;86.05
70154;DHT22;57519;51.494;-2.626;2023-05-10T07:15:59;13.13;86.14
70154;DHT22;57519;51.494;-2.626;2023-05-10T07:18:24;13.13;86.44
70154;DHT22;57519;51.494;-2.626;2023-05-10T07:20:50;13.28;86.69
70154;DHT22;57519;51.494;-2.626;2023-05-10T07:23:16;13.36;85.75
70154;DHT22;57519;51.494;-2.626;2023-05-10T07:25:49;13.41;85.69
70154;DHT22;57519;51.494;-2.626;2023-05-10T07:28:16;13.38;85.65
70154;DHT22;57519;51.494;-2.626;2023-05-10T07:30:42;13.46;85.48
70154;DHT22;57519;51.494;-2.626;2023-05-10T07:33:08;13.43;85.01
70154;DHT22;57519;51.494;-2.626;2023-05-10T07:35:35;13.44;84.87
70154;DHT22;57519;51.494;-2.626;2023-05-10T07:38:00;13.36;84.74
70154;DHT22;57519;51.494;-2.626;2023-05-10T07:40:27;13.36;84.99
70154;DHT22;57519;51.494;-2.626;2023-05-10T07:42:52;13.48;85.52
70154;DHT22;57519;51.494;-2.626;2023-05-10T07:45:18;13.71;84.92
70154;DHT22;57519;51.494;-2.626;2023-05-10T07:47:43;13.78;84.44
70154;DHT22;57519;51.494;-2.626;2023-05-10T07:50:09;13.99;84.25
70154;DHT22;57519;51.494;-2.626;2023-05-10T07:52:34;14.05;84.07
70154;DHT22;57519;51.494;-2.626;2023-05-10T07:54:59;14.22;83.62
70154;DHT22;57519;51.494;-2.626;2023-05-10T07:57:25;14.36;83.25
70154;DHT22;57519;51.494;-2.626;2023-05-10T07:59:50;14.24;82.80
70154;DHT22;57519;51.494;-2.626;2023-05-10T08:02:16;14.32;82.97
70154;DHT22;57519;51.494;-2.626;2023-05-10T08:04:41;14.48;82.65
70154;DHT22;57519;51.494;-2.626;2023-05-10T08:07:06;14.38;82.39
70154;DHT22;57519;51.494;-2.626;2023-05-10T08:09:32;14.32;82.42
70154;DHT22;57519;51.494;-2.626;2023-05-10T08:11:58;14.03;82.63
70154;DHT22;57519;51.494;-2.626;2023-05-10T08:14:25;14.22;82.93
70154;DHT22;57519;51.494;-2.626;2023-05-10T08:16:50;14.14;82.70
70154;DHT22;57519;51.494;-2.626;2023-05-10T08:19:16;14.24;82.68
70154;DHT22;57519;51.494;-2.626;2023-05-10T08:21:45;14.63;82.06
70154;DHT22;57519;51.494;-2.626;2023-05-10T08:24:10;14.65;81.81
70154;DHT22;57519;51.494;-2.626;2023-05-10T08:26:36;14.84;80.59
70154;DHT22;57519;51.494;-2.626;2023-05-10T08:29:01;15.00;79.28
70154;DHT22;57519;51.494;-2.626;2023-05-10T08:31:27;15.16;78.98
70154;DHT22;57519;51.494;-2.626;2023-05-10T08:33:52;15.02;78.97
70154;DHT22;57519;51.494;-2.626;2023-05-10T08:36:18;14.91;78.66
70154;DHT22;57519;51.494;-2.626;2023-05-10T08:38:47;14.93;78.05
70154;DHT22;57519;51.494;-2.626;2023-05-10T08:41:13;15.27;78.14
70154;DHT22;57519;51.494;-2.626;2023-05-10T08:43:38;15.53;77.61
70154;DHT22;57519;51.494;-2.626;2023-05-10T08:46:07;15.73;77.99
70154;DHT22;57519;51.494;-2.626;2023-05-10T08:48:34;16.05;76.84
70154;DHT22;57519;51.494;-2.626;2023-05-10T08:51:00;15.88;76.01
70154;DHT22;57519;51.494;-2.626;2023-05-10T08:53:26;15.66;76.76
70154;DHT22;57519;51.494;-2.626;2023-05-10T08:55:52;15.64;77.35
70154;DHT22;57519;51.494;-2.626;2023-05-10T08:58:19;15.61;77.99
70154;DHT22;57519;51.494;-2.626;2023-05-10T09:00:45;15.57;77.14
70154;DHT22;57519;51.494;-2.626;2023-05-10T09:03:12;15.53;77.16
70154;DHT22;57519;51.494;-2.626;2023-05-10T09:05:38;15.56;76.78
70154;DHT22;57519;51.494;-2.626;2023-05-10T09:08:04;15.27;77.02
70154;DHT22;57519;51.494;-2.626;2023-05-10T09:10:29;15.22;77.17
70154;DHT22;57519;51.494;-2.626;2023-05-10T09:12:59;15.16;77.33
70154;DHT22;57519;51.494;-2.626;2023-05-10T09:15:24;15.30;77.13
70154;DHT22;57519;51.494;-2.626;2023-05-10T09:17:50;15.67;77.19
70154;DHT22;57519;51.494;-2.626;2023-05-10T09:20:15;15.63;76.08
70154;DHT22;57519;51.494;-2.626;2023-05-10T09:22:42;15.23;76.60
70154;DHT22;57519;51.494;-2.626;2023-05-10T09:25:15;15.26;78.17
70154;DHT22;57519;51.494;-2.626;2023-05-10T09:27:44;15.33;77.42
70154;DHT22;57519;51.494;-2.626;2023-05-10T09:30:32;15.12;77.35
70154;DHT22;57519;51.494;-2.626;2023-05-10T09:32:58;15.32;77.36
70154;DHT22;57519;51.494;-2.626;2023-05-10T09:35:26;15.47;76.55
70154;DHT22;57519;51.494;-2.626;2023-05-10T09:37:53;15.70;76.98
70154;DHT22;57519;51.494;-2.626;2023-05-10T09:40:21;15.60;76.53
70154;DHT22;57519;51.494;-2.626;2023-05-10T09:45:17;15.57;76.07
70154;DHT22;57519;51.494;-2.626;2023-05-10T09:47:42;15.91;76.28
70154;DHT22;57519;51.494;-2.626;2023-05-10T09:50:08;15.74;75.65
70154;DHT22;57519;51.494;-2.626;2023-05-10T09:52:49;16.23;75.55
70154;DHT22;57519;51.494;-2.626;2023-05-10T09:55:20;16.53;73.99
70154;DHT22;57519;51.494;-2.626;2023-05-10T09:57:46;16.83;73.93
70154;DHT22;57519;51.494;-2.626;2023-05-10T10:00:17;16.91;71.32
70154;DHT22;57519;51.494;-2.626;2023-05-10T10:02:45;17.11;70.88
70154;DHT22;57519;51.494;-2.626;2023-05-10T10:05:11;17.04;71.64
70154;DHT22;57519;51.494;-2.626;2023-05-10T10:07:37;16.38;73.32
70154;DHT22;57519;51.494;-2.626;2023-05-10T10:10:03;16.08;73.45
70154;DHT22;57519;51.494;-2.626;2023-05-10T10:12:30;16.26;72.22
70154;DHT22;57519;51.494;-2.626;2023-05-10T10:14:56;16.46;70.53
70154;DHT22;57519;51.494;-2.626;2023-05-10T10:17:21;16.56;71.40
70154;DHT22;57519;51.494;-2.626;2023-05-10T10:19:48;16.42;69.70
70154;DHT22;57519;51.494;-2.626;2023-05-10T10:22:14;16.50;69.49
70154;DHT22;57519;51.494;-2.626;2023-05-10T10:24:39;16.45;70.04
70154;DHT22;57519;51.494;-2.626;2023-05-10T10:27:23;16.48;70.75
70154;DHT22;57519;51.494;-2.626;2023-05-10T10:35:39;16.33;72.26
70154;DHT22;57519;51.494;-2.626;2023-05-10T10:38:08;16.14;72.59
70154;DHT22;57519;51.494;-2.626;2023-05-10T10:40:34;16.26;72.76
70154;DHT22;57519;51.494;-2.626;2023-05-10T10:46:12;15.80;73.00
70154;DHT22;57519;51.494;-2.626;2023-05-10T10:48:48;16.23;72.27
70154;DHT22;57519;51.494;-2.626;2023-05-10T10:51:14;16.56;72.10
70154;DHT22;57519;51.494;-2.626;2023-05-10T10:53:43;16.60;72.24
70154;DHT22;57519;51.494;-2.626;2023-05-10T10:56:12;16.26;71.58
70154;DHT22;57519;51.494;-2.626;2023-05-10T10:58:40;16.70;70.53
70154;DHT22;57519;51.494;-2.626;2023-05-10T11:01:18;16.73;71.72
70154;DHT22;57519;51.494;-2.626;2023-05-10T11:06:31;16.23;73.64
70154;DHT22;57519;51.494;-2.626;2023-05-10T11:09:09;16.18;75.82
70154;DHT22;57519;51.494;-2.626;2023-05-10T11:11:36;16.09;76.56
70154;DHT22;57519;51.494;-2.626;2023-05-10T11:43:34;16.95;69.00
70154;DHT22;57519;51.494;-2.626;2023-05-10T11:46:02;16.85;68.36
70154;DHT22;57519;51.494;-2.626;2023-05-10T11:48:29;17.00;69.13
70154;DHT22;57519;51.494;-2.626;2023-05-10T11:50:55;17.31;67.78
70154;DHT22;57519;51.494;-2.626;2023-05-10T11:53:24;17.69;68.60
70154;DHT22;57519;51.494;-2.626;2023-05-10T11:55:50;17.21;68.03
70154;DHT22;57519;51.494;-2.626;2023-05-10T11:58:18;17.22;66.96
70154;DHT22;57519;51.494;-2.626;2023-05-10T12:00:44;17.40;68.32
70154;DHT22;57519;51.494;-2.626;2023-05-10T12:03:10;17.43;68.47
70154;DHT22;57519;51.494;-2.626;2023-05-10T12:05:36;16.77;68.96
70154;DHT22;57519;51.494;-2.626;2023-05-10T12:08:19;17.14;68.96
70154;DHT22;57519;51.494;-2.626;2023-05-10T12:10:45;17.01;69.03
70154;DHT22;57519;51.494;-2.626;2023-05-10T12:13:12;16.76;70.10
70154;DHT22;57519;51.494;-2.626;2023-05-10T12:15:39;16.63;71.47
70154;DHT22;57519;51.494;-2.626;2023-05-10T12:18:05;17.00;70.64
70154;DHT22;57519;51.494;-2.626;2023-05-10T12:20:33;17.21;70.82
70154;DHT22;57519;51.494;-2.626;2023-05-10T12:22:59;17.39;68.89
70154;DHT22;57519;51.494;-2.626;2023-05-10T12:25:33;17.29;69.55
70154;DHT22;57519;51.494;-2.626;2023-05-10T12:28:02;17.42;69.85
70154;DHT22;57519;51.494;-2.626;2023-05-10T12:30:33;17.40;69.72
70154;DHT22;57519;51.494;-2.626;2023-05-10T12:33:08;17.65;69.77
70154;DHT22;57519;51.494;-2.626;2023-05-10T12:35:46;17.82;68.30
70154;DHT22;57519;51.494;-2.626;2023-05-10T12:38:38;18.03;66.37
70154;DHT22;57519;51.494;-2.626;2023-05-10T12:41:07;18.42;66.03
70154;DHT22;57519;51.494;-2.626;2023-05-10T12:43:33;18.68;65.84
70154;DHT22;57519;51.494;-2.626;2023-05-10T12:46:07;18.11;66.33
70154;DHT22;57519;51.494;-2.626;2023-05-10T12:48:33;18.11;66.26
70154;DHT22;57519;51.494;-2.626;2023-05-10T12:51:00;18.30;65.94
70154;DHT22;57519;51.494;-2.626;2023-05-10T12:53:25;17.76;65.53
70154;DHT22;57519;51.494;-2.626;2023-05-10T12:55:51;17.24;66.23
70154;DHT22;57519;51.494;-2.626;2023-05-10T12:58:17;17.18;68.46
70154;DHT22;57519;51.494;-2.626;2023-05-10T13:00:46;17.46;67.04
70154;DHT22;57519;51.494;-2.626;2023-05-10T13:03:12;17.65;65.69
70154;DHT22;57519;51.494;-2.626;2023-05-10T13:05:38;17.50;66.19
70154;DHT22;57519;51.494;-2.626;2023-05-10T13:08:03;17.80;67.04
70154;DHT22;57519;51.494;-2.626;2023-05-10T13:10:30;18.28;64.91
70154;DHT22;57519;51.494;-2.626;2023-05-10T13:12:57;17.84;65.69
70154;DHT22;57519;51.494;-2.626;2023-05-10T13:15:25;17.98;65.61
70154;DHT22;57519;51.494;-2.626;2023-05-10T13:18:01;18.05;65.76
70154;DHT22;57519;51.494;-2.626;2023-05-10T13:20:26;18.13;65.40
70154;DHT22;57519;51.494;-2.626;2023-05-10T13:25:19;17.97;64.67
70154;DHT22;57519;51.494;-2.626;2023-05-10T13:27:45;18.25;66.47
70154;DHT22;57519;51.494;-2.626;2023-05-10T13:32:45;18.28;64.10
70154;DHT22;57519;51.494;-2.626;2023-05-10T13:35:11;18.14;63.18
70154;DHT22;57519;51.494;-2.626;2023-05-10T13:37:37;17.56;65.07
70154;DHT22;57519;51.494;-2.626;2023-05-10T13:40:03;18.14;64.89
70154;DHT22;57519;51.494;-2.626;2023-05-10T13:47:39;18.37;64.03
70154;DHT22;57519;51.494;-2.626;2023-05-10T13:52:39;17.98;62.53
70154;DHT22;57519;51.494;-2.626;2023-05-10T13:57:34;18.13;63.28
70154;DHT22;57519;51.494;-2.626;2023-05-10T14:00:01;18.01;62.26
70154;DHT22;57519;51.494;-2.626;2023-05-10T14:05:02;18.00;61.27
70154;DHT22;57519;51.494;-2.626;2023-05-10T14:07:28;18.18;62.16
70154;DHT22;57519;51.494;-2.626;2023-05-10T14:09:56;18.00;62.77
70154;DHT22;57519;51.494;-2.626;2023-05-10T14:12:21;18.35;63.28
70154;DHT22;57519;51.494;-2.626;2023-05-10T14:14:48;17.77;61.03
70154;DHT22;57519;51.494;-2.626;2023-05-10T14:19:43;17.59;63.05
70154;DHT22;57519;51.494;-2.626;2023-05-10T14:24:44;17.32;64.01
70154;DHT22;57519;51.494;-2.626;2023-05-10T14:27:12;17.36;63.89
70154;DHT22;57519;51.494;-2.626;2023-05-10T14:29:38;17.36;63.23
70154;DHT22;57519;51.494;-2.626;2023-05-10T14:32:09;17.55;63.67
70154;DHT22;57519;51.494;-2.626;2023-05-10T14:34:36;17.34;62.91
70154;DHT22;57519;51.494;-2.626;2023-05-10T14:53:58;17.39;62.95
70154;DHT22;57519;51.494;-2.626;2023-05-10T14:56:24;17.45;62.32
70154;DHT22;57519;51.494;-2.626;2023-05-10T15:01:26;17.46;61.87
70154;DHT22;57519;51.494;-2.626;2023-05-10T15:03:52;17.31;60.42
70154;DHT22;57519;51.494;-2.626;2023-05-10T15:06:30;17.15;62.51
70154;DHT22;57519;51.494;-2.626;2023-05-10T15:08:55;17.32;61.69
70154;DHT22;57519;51.494;-2.626;2023-05-10T15:11:23;17.25;62.03
70154;DHT22;57519;51.494;-2.626;2023-05-10T15:13:49;17.35;62.25
70154;DHT22;57519;51.494;-2.626;2023-05-10T15:16:14;17.39;62.48
70154;DHT22;57519;51.494;-2.626;2023-05-10T15:18:40;17.65;62.27
70154;DHT22;57519;51.494;-2.626;2023-05-10T15:21:06;17.42;62.93
70154;DHT22;57519;51.494;-2.626;2023-05-10T15:23:31;17.50;63.36
70154;DHT22;57519;51.494;-2.626;2023-05-10T15:25:57;17.48;62.44
70154;DHT22;57519;51.494;-2.626;2023-05-10T15:28:22;17.42;63.02
70154;DHT22;57519;51.494;-2.626;2023-05-10T15:30:48;17.45;63.88
70154;DHT22;57519;51.494;-2.626;2023-05-10T15:33:14;17.03;63.68
70154;DHT22;57519;51.494;-2.626;2023-05-10T15:35:39;17.03;64.33
70154;DHT22;57519;51.494;-2.626;2023-05-10T15:38:05;16.85;64.72
70154;DHT22;57519;51.494;-2.626;2023-05-10T15:40:31;17.14;64.45
70154;DHT22;57519;51.494;-2.626;2023-05-10T15:42:56;17.40;63.43
70154;DHT22;57519;51.494;-2.626;2023-05-10T15:45:22;17.56;63.04
70154;DHT22;57519;51.494;-2.626;2023-05-10T15:47:47;17.57;63.41
70154;DHT22;57519;51.494;-2.626;2023-05-10T15:50:14;17.56;63.51
70154;DHT22;57519;51.494;-2.626;2023-05-10T15:52:41;17.46;63.18
70154;DHT22;57519;51.494;-2.626;2023-05-10T15:55:07;17.43;63.45
70154;DHT22;57519;51.494;-2.626;2023-05-10T15:57:40;17.63;62.44
70154;DHT22;57519;51.494;-2.626;2023-05-10T16:00:07;17.59;62.50
70154;DHT22;57519;51.494;-2.626;2023-05-10T16:02:33;17.59;63.25
70154;DHT22;57519;51.494;-2.626;2023-05-10T16:05:02;17.46;62.15
70154;DHT22;57519;51.494;-2.626;2023-05-10T16:07:28;17.19;63.49
70154;DHT22;57519;51.494;-2.626;2023-05-10T16:09:53;16.94;64.70
70154;DHT22;57519;51.494;-2.626;2023-05-10T16:12:19;17.07;64.66
70154;DHT22;57519;51.494;-2.626;2023-05-10T16:14:45;16.73;64.21
70154;DHT22;57519;51.494;-2.626;2023-05-10T16:17:30;16.57;65.10
70154;DHT22;57519;51.494;-2.626;2023-05-10T16:19:56;16.92;64.26
70154;DHT22;57519;51.494;-2.626;2023-05-10T16:22:24;16.90;64.35
70154;DHT22;57519;51.494;-2.626;2023-05-10T16:24:51;16.70;64.75
70154;DHT22;57519;51.494;-2.626;2023-05-10T16:27:18;16.83;64.17
70154;DHT22;57519;51.494;-2.626;2023-05-10T16:29:43;16.73;64.52
70154;DHT22;57519;51.494;-2.626;2023-05-10T16:32:09;16.90;65.40
70154;DHT22;57519;51.494;-2.626;2023-05-10T16:34:35;17.10;64.07
70154;DHT22;57519;51.494;-2.626;2023-05-10T16:37:00;17.35;63.56
70154;DHT22;57519;51.494;-2.626;2023-05-10T16:39:26;17.19;63.32
70154;DHT22;57519;51.494;-2.626;2023-05-10T16:41:51;17.07;64.04
70154;DHT22;57519;51.494;-2.626;2023-05-10T16:44:16;16.79;65.33
70154;DHT22;57519;51.494;-2.626;2023-05-10T16:46:42;16.79;65.31
70154;DHT22;57519;51.494;-2.626;2023-05-10T16:49:08;16.98;65.07
70154;DHT22;57519;51.494;-2.626;2023-05-10T16:51:34;16.94;64.59
70154;DHT22;57519;51.494;-2.626;2023-05-10T16:53:59;16.76;65.12
70154;DHT22;57519;51.494;-2.626;2023-05-10T16:56:25;16.33;65.68
70154;DHT22;57519;51.494;-2.626;2023-05-10T16:58:51;16.43;65.97
70154;DHT22;57519;51.494;-2.626;2023-05-10T17:01:16;16.59;65.99
70154;DHT22;57519;51.494;-2.626;2023-05-10T17:08:44;16.23;67.94
70154;DHT22;57519;51.494;-2.626;2023-05-10T17:31:50;15.77;68.90
70154;DHT22;57519;51.494;-2.626;2023-05-10T17:34:19;15.90;69.03
70154;DHT22;57519;51.494;-2.626;2023-05-10T17:36:44;15.93;69.50
70154;DHT22;57519;51.494;-2.626;2023-05-10T18:02:34;15.37;69.25
70154;DHT22;57519;51.494;-2.626;2023-05-10T18:04:59;15.15;70.21
70154;DHT22;57519;51.494;-2.626;2023-05-10T18:07:26;15.05;70.73
70154;DHT22;57519;51.494;-2.626;2023-05-10T18:09:52;14.88;71.46
70154;DHT22;57519;51.494;-2.626;2023-05-10T18:12:18;14.60;71.98
70154;DHT22;57519;51.494;-2.626;2023-05-10T18:14:43;14.43;71.77
70154;DHT22;57519;51.494;-2.626;2023-05-10T18:17:08;14.30;72.36
70154;DHT22;57519;51.494;-2.626;2023-05-10T18:19:34;14.19;72.74
70154;DHT22;57519;51.494;-2.626;2023-05-10T18:21:59;14.20;73.27
70154;DHT22;57519;51.494;-2.626;2023-05-10T18:24:24;14.22;73.39
70154;DHT22;57519;51.494;-2.626;2023-05-10T18:26:50;14.16;73.21
70154;DHT22;57519;51.494;-2.626;2023-05-10T18:29:15;14.10;73.06
70154;DHT22;57519;51.494;-2.626;2023-05-10T18:31:41;14.05;73.08
70154;DHT22;57519;51.494;-2.626;2023-05-10T18:34:06;13.90;73.23
70154;DHT22;57519;51.494;-2.626;2023-05-10T18:36:32;13.95;73.85
70154;DHT22;57519;51.494;-2.626;2023-05-10T18:38:57;13.89;73.88
70154;DHT22;57519;51.494;-2.626;2023-05-10T18:41:23;13.85;74.32
70154;DHT22;57519;51.494;-2.626;2023-05-10T18:43:51;13.87;74.39
70154;DHT22;57519;51.494;-2.626;2023-05-10T18:46:16;13.72;74.67
70154;DHT22;57519;51.494;-2.626;2023-05-10T18:48:42;13.72;74.87
70154;DHT22;57519;51.494;-2.626;2023-05-10T18:51:08;13.58;75.53
70154;DHT22;57519;51.494;-2.626;2023-05-10T18:53:33;13.59;75.71